Time;durP1;ratioP1;P1;durP2;ratioP2;P2;SDS_P1;SDS_P2;PMS_P1;PMS_P2;Temp;Humidity;BMP_temperature;BMP_pressure;BME280_temperature;BME280_humidity;BME280_pressure;Samples;Min_cycle;Max_cycle;Signal;HPM_P1;HPM_P2
2022/12/11 00:01:09;;;;;;;22.70;15.00;;;;;;;;;;5033175;28;20240;-67
2022/12/11 00:03:35;;;;;;;22.08;15.35;;;;;;;;;;5032661;28;20210;-67
2022/12/11 00:06:05;;;;;;;20.60;15.43;;;;;;;;;;5032266;28;20514;-67
2022/12/11 00:08:31;;;;;;;19.50;14.98;;;;;;;;;;5032484;28;20232;-67
2022/12/11 00:10:58;;;;;;;21.30;15.07;;;;;;;;;;5032601;28;20517;-67
2022/12/11 00:13:24;;;;;;;23.95;16.48;;;;;;;;;;5032558;28;20210;-67
2022/12/11 00:15:50;;;;;;;20.98;15.50;;;;;;;;;;5032388;28;20557;-67
2022/12/11 00:18:17;;;;;;;22.33;15.70;;;;;;;;;;5033930;28;20225;-67
2022/12/11 00:20:43;;;;;;;20.33;15.32;;;;;;;;;;5036308;28;20218;-67
2022/12/11 00:23:11;;;;;;;18.88;14.45;;;;;;;;;;5035823;28;20214;-67
2022/12/11 00:25:40;;;;;;;20.80;15.13;;;;;;;;;;5035311;28;20261;-67
2022/12/11 00:28:06;;;;;;;20.15;14.82;;;;;;;;;;5035454;28;20226;-67
2022/12/11 00:30:33;;;;;;;20.30;14.55;;;;;;;;;;5035770;28;20248;-67
2022/12/11 00:32:59;;;;;;;20.13;15.27;;;;;;;;;;5035700;28;20210;-67
2022/12/11 00:35:25;;;;;;;21.20;14.85;;;;;;;;;;5035170;28;20210;-67
2022/12/11 00:37:51;;;;;;;21.20;15.05;;;;;;;;;;5035323;28;20209;-67
2022/12/11 00:40:20;;;;;;;20.63;15.02;;;;;;;;;;5035916;28;20206;-66
2022/12/11 00:42:46;;;;;;;19.83;15.10;;;;;;;;;;5035398;28;20557;-66
2022/12/11 00:45:12;;;;;;;19.45;14.30;;;;;;;;;;5040311;27;20277;-66
2022/12/11 00:47:39;;;;;;;20.88;13.93;;;;;;;;;;5040766;28;20365;-66
2022/12/11 00:50:06;;;;;;;19.60;14.10;;;;;;;;;;5041186;28;20224;-66
2022/12/11 00:52:33;;;;;;;20.63;14.85;;;;;;;;;;5040778;28;20197;-66
2022/12/11 00:54:59;;;;;;;21.60;14.82;;;;;;;;;;5041013;28;20198;-66
2022/12/11 00:57:27;;;;;;;24.40;16.27;;;;;;;;;;5040995;28;20198;-66
2022/12/11 00:59:53;;;;;;;22.52;17.35;;;;;;;;;;5040693;28;20201;-66
2022/12/11 01:02:20;;;;;;;23.70;16.63;;;;;;;;;;5040756;28;20272;-66
2022/12/11 01:04:46;;;;;;;22.80;15.90;;;;;;;;;;5041067;28;20232;-66
2022/12/11 01:07:12;;;;;;;23.10;16.55;;;;;;;;;;5041119;28;20272;-66
2022/12/11 01:12:22;;;;;;;21.73;15.80;;;;;;;;;;5040822;28;20208;-66
2022/12/11 01:14:50;;;;;;;23.33;15.95;;;;;;;;;;5040597;28;20244;-66
2022/12/11 01:17:17;;;;;;;25.23;16.92;;;;;;;;;;5040680;28;20198;-66
2022/12/11 01:19:43;;;;;;;24.67;16.60;;;;;;;;;;5040358;28;20245;-66
2022/12/11 01:22:10;;;;;;;24.60;16.90;;;;;;;;;;5040472;28;20204;-66
2022/12/11 01:24:36;;;;;;;25.23;16.98;;;;;;;;;;5040735;28;20256;-66
2022/12/11 01:27:03;;;;;;;23.63;16.33;;;;;;;;;;5040406;28;20205;-66
2022/12/11 01:29:29;;;;;;;23.05;16.90;;;;;;;;;;5039627;28;20217;-66
2022/12/11 01:31:57;;;;;;;23.75;16.80;;;;;;;;;;5040626;28;20197;-66
2022/12/11 11:14:15;;;;;;;22.88;14.90;;;;;;;;;;5024015;28;20192;-58
2022/12/11 11:16:43;;;;;;;20.70;14.60;;;;;;;;;;5032931;28;20285;-59
2022/12/11 11:19:18;;;;;;;22.42;15.40;;;;;;;;;;5033060;28;20232;-59
2022/12/11 11:21:48;;;;;;;23.23;14.20;;;;;;;;;;5032930;28;20411;-59
2022/12/11 11:24:21;;;;;;;22.55;15.10;;;;;;;;;;5033622;28;20244;-58
2022/12/11 11:26:48;;;;;;;23.27;14.68;;;;;;;;;;5033384;28;20273;-59
2022/12/11 11:29:22;;;;;;;19.42;14.05;;;;;;;;;;5032607;28;20234;-59
2022/12/11 11:31:49;;;;;;;19.88;13.05;;;;;;;;;;5033483;28;20211;-59
2022/12/11 11:34:18;;;;;;;21.75;14.30;;;;;;;;;;5033280;28;20525;-59
2022/12/11 11:36:55;;;;;;;24.55;16.05;;;;;;;;;;5033371;28;20280;-59
2022/12/11 11:39:25;;;;;;;22.50;16.10;;;;;;;;;;5032892;28;20277;-58
2022/12/11 11:41:55;;;;;;;25.95;15.73;;;;;;;;;;5033413;28;20213;-58
2022/12/11 11:44:25;;;;;;;20.88;14.95;;;;;;;;;;5033404;28;20216;-58
2022/12/11 11:46:55;;;;;;;20.30;14.45;;;;;;;;;;5033101;28;20237;-58
2022/12/11 11:49:24;;;;;;;23.27;15.90;;;;;;;;;;5032586;28;20564;-57
2022/12/11 11:51:52;;;;;;;35.45;21.98;;;;;;;;;;5033456;28;20206;-58
2022/12/11 11:54:24;;;;;;;21.92;15.48;;;;;;;;;;5033124;28;20206;-58
2022/12/11 11:56:51;;;;;;;20.98;14.73;;;;;;;;;;5033395;28;20216;-58
2022/12/11 11:59:21;;;;;;;22.98;15.95;;;;;;;;;;5032623;28;20509;-58
2022/12/11 12:01:50;;;;;;;24.42;17.73;;;;;;;;;;5033393;28;20206;-58
2022/12/11 12:04:16;;;;;;;23.48;16.40;;;;;;;;;;5033184;28;20210;-59
2022/12/11 12:06:53;;;;;;;20.98;14.93;;;;;;;;;;5032453;28;20209;-57
2022/12/11 12:09:26;;;;;;;26.05;17.02;;;;;;;;;;5032734;28;20475;-58
2022/12/11 12:11:55;;;;;;;25.10;15.60;;;;;;;;;;5033395;28;20228;-58
2022/12/11 12:14:25;;;;;;;21.50;14.93;;;;;;;;;;5035158;28;20231;-59
2022/12/11 12:16:58;;;;;;;19.20;14.18;;;;;;;;;;5036548;28;20401;-58
2022/12/11 12:19:38;;;;;;;20.15;14.18;;;;;;;;;;5035834;28;20202;-58
2022/12/11 12:22:11;;;;;;;23.15;15.13;;;;;;;;;;5036482;28;20209;-58
2022/12/11 12:24:45;;;;;;;22.25;14.88;;;;;;;;;;5036217;28;20210;-57
2022/12/11 12:27:16;;;;;;;22.20;13.75;;;;;;;;;;5035636;28;20232;-59
2022/12/11 12:29:46;;;;;;;21.25;14.57;;;;;;;;;;5015901;28;20404;-58
2022/12/11 12:32:17;;;;;;;25.38;15.85;;;;;;;;;;5016509;28;20285;-59
2022/12/11 12:34:48;;;;;;;22.83;14.88;;;;;;;;;;5016648;28;20492;-58
2022/12/11 12:37:21;;;;;;;22.45;14.77;;;;;;;;;;5016476;28;20210;-59
2022/12/11 12:39:50;;;;;;;20.05;14.30;;;;;;;;;;5016208;28;20206;-60
2022/12/11 12:42:22;;;;;;;20.33;14.45;;;;;;;;;;5016784;28;20210;-58
2022/12/11 12:44:54;;;;;;;20.63;14.60;;;;;;;;;;5016358;28;20466;-58
2022/12/11 12:47:22;;;;;;;20.63;14.50;;;;;;;;;;5015818;28;20514;-59
2022/12/11 12:49:49;;;;;;;23.52;14.93;;;;;;;;;;5015788;28;20246;-58
2022/12/11 12:52:17;;;;;;;21.05;14.80;;;;;;;;;;5023107;28;20212;-58
2022/12/11 12:55:12;;;;;;;22.80;15.13;;;;;;;;;;5035899;28;20217;-59
2022/12/11 12:57:33;;;;;;;22.45;14.13;;;;;;;;;;5035032;28;20232;-58
2022/12/11 13:00:00;;;;;;;20.55;15.18;;;;;;;;;;5035140;28;20609;-59
2022/12/11 13:02:27;;;;;;;22.90;15.75;;;;;;;;;;5035575;28;20248;-59
2022/12/11 13:04:58;;;;;;;19.50;14.52;;;;;;;;;;5035232;28;20214;-58
2022/12/11 13:07:28;;;;;;;22.33;15.27;;;;;;;;;;5035121;28;20210;-57
2022/12/11 13:10:05;;;;;;;21.50;14.60;;;;;;;;;;5034861;27;20233;-59
2022/12/11 13:12:33;;;;;;;23.33;15.43;;;;;;;;;;5035476;28;20581;-59
2022/12/11 13:15:00;;;;;;;23.75;15.38;;;;;;;;;;5035406;28;20654;-59
2022/12/11 13:17:35;;;;;;;21.08;14.27;;;;;;;;;;5035039;28;20216;-59
2022/12/11 13:20:11;;;;;;;22.38;15.18;;;;;;;;;;5035047;28;20237;-59
2022/12/11 13:22:47;;;;;;;22.50;15.13;;;;;;;;;;5035734;28;20396;-59
2022/12/11 13:25:19;;;;;;;21.77;14.60;;;;;;;;;;5034532;28;20210;-59
2022/12/11 13:27:46;;;;;;;23.60;13.80;;;;;;;;;;5034727;28;20259;-58
2022/12/11 13:30:21;;;;;;;21.95;15.07;;;;;;;;;;5035251;28;20541;-59
2022/12/11 13:32:55;;;;;;;23.20;15.32;;;;;;;;;;5035262;28;20237;-59
2022/12/11 13:35:21;;;;;;;22.35;14.32;;;;;;;;;;5035121;28;20210;-58
2022/12/11 13:37:50;;;;;;;25.45;13.73;;;;;;;;;;5034757;28;20206;-59
2022/12/11 13:40:18;;;;;;;24.63;14.85;;;;;;;;;;5034665;28;20228;-58
2022/12/11 13:42:48;;;;;;;22.58;14.98;;;;;;;;;;5035035;28;20206;-57
2022/12/11 13:45:18;;;;;;;23.60;14.52;;;;;;;;;;5034811;28;20265;-58
2022/12/11 13:47:45;;;;;;;22.00;15.00;;;;;;;;;;5034488;28;20419;-59
2022/12/11 13:50:15;;;;;;;17.42;13.77;;;;;;;;;;5034513;28;20234;-58
2022/12/11 13:52:41;;;;;;;22.23;14.70;;;;;;;;;;5034860;28;20216;-58
2022/12/11 13:55:16;;;;;;;20.73;14.05;;;;;;;;;;5035023;28;20264;-59
2022/12/11 13:57:45;;;;;;;24.35;15.30;;;;;;;;;;5034574;28;20461;-59
2022/12/11 14:00:19;;;;;;;24.75;14.93;;;;;;;;;;5034243;28;20216;-59
2022/12/11 14:02:46;;;;;;;20.08;14.15;;;;;;;;;;5034448;28;20217;-59
2022/12/11 14:05:14;;;;;;;22.35;15.27;;;;;;;;;;5034309;28;20232;-59
2022/12/11 14:07:42;;;;;;;23.13;15.02;;;;;;;;;;5034264;28;20457;-59
2022/12/11 14:10:14;;;;;;;19.83;14.27;;;;;;;;;;5034147;28;20221;-57
2022/12/11 14:12:43;;;;;;;21.67;14.93;;;;;;;;;;5035464;28;20272;-59
2022/12/11 14:15:12;;;;;;;24.13;15.50;;;;;;;;;;5040134;28;20437;-59
2022/12/11 14:17:41;;;;;;;23.58;14.98;;;;;;;;;;5039865;28;20265;-58
2022/12/11 14:20:16;;;;;;;20.23;14.10;;;;;;;;;;5039767;28;20198;-58
2022/12/11 14:22:44;;;;;;;25.02;16.20;;;;;;;;;;5040036;28;20197;-58
2022/12/11 14:25:20;;;;;;;21.13;14.48;;;;;;;;;;5039828;28;20470;-57
2022/12/11 14:27:47;;;;;;;22.30;14.68;;;;;;;;;;5040321;28;20548;-56
2022/12/11 14:30:19;;;;;;;23.13;14.13;;;;;;;;;;5039831;28;20213;-57
2022/12/11 14:32:46;;;;;;;21.13;13.00;;;;;;;;;;5039890;28;20497;-57
2022/12/11 14:35:18;;;;;;;21.00;13.55;;;;;;;;;;5039711;28;20237;-58
2022/12/11 14:37:45;;;;;;;19.63;13.88;;;;;;;;;;5039298;28;20212;-59
2022/12/11 14:40:15;;;;;;;21.83;14.18;;;;;;;;;;5040242;28;20265;-58
2022/12/11 14:42:44;;;;;;;20.10;14.23;;;;;;;;;;5039635;28;20198;-59
2022/12/11 14:45:16;;;;;;;22.15;15.38;;;;;;;;;;5039830;28;20268;-60
2022/12/11 14:47:43;;;;;;;23.65;15.35;;;;;;;;;;5039630;28;20641;-59
2022/12/11 14:50:13;;;;;;;23.58;16.95;;;;;;;;;;5039179;28;20229;-59
2022/12/11 14:52:42;;;;;;;23.77;16.88;;;;;;;;;;5039503;28;20264;-59
2022/12/11 14:55:13;;;;;;;24.48;16.95;;;;;;;;;;5039501;28;20198;-58
2022/12/11 14:57:40;;;;;;;30.95;18.67;;;;;;;;;;5039274;28;20241;-58
2022/12/11 15:00:07;;;;;;;32.05;19.88;;;;;;;;;;5039500;28;20189;-58
2022/12/11 15:02:34;;;;;;;28.88;18.75;;;;;;;;;;5039336;28;20264;-58
2022/12/11 15:05:16;;;;;;;29.98;19.15;;;;;;;;;;5039333;28;20384;-57
2022/12/11 15:07:43;;;;;;;33.33;19.95;;;;;;;;;;5039214;28;20209;-58
2022/12/11 15:10:25;;;;;;;31.45;19.52;;;;;;;;;;5039093;28;20285;-58
2022/12/11 15:12:52;;;;;;;36.35;22.40;;;;;;;;;;5039412;28;20441;-58
2022/12/11 15:15:18;;;;;;;35.28;22.15;;;;;;;;;;5039122;28;20198;-58
2022/12/11 15:17:45;;;;;;;38.45;22.00;;;;;;;;;;5039095;28;20206;-57
2022/12/11 15:20:21;;;;;;;38.85;22.80;;;;;;;;;;5038774;28;20214;-58
2022/12/11 15:22:47;;;;;;;35.63;21.98;;;;;;;;;;5039361;28;20305;-58
2022/12/11 15:25:17;;;;;;;32.97;20.08;;;;;;;;;;5039038;28;20197;-59
2022/12/11 15:27:49;;;;;;;31.45;19.10;;;;;;;;;;5038624;28;20232;-59
2022/12/11 15:30:26;;;;;;;34.63;19.88;;;;;;;;;;5038343;28;20202;-58
2022/12/11 15:33:01;;;;;;;32.13;19.05;;;;;;;;;;5038619;28;20225;-59
2022/12/11 15:35:28;;;;;;;27.05;18.23;;;;;;;;;;5038746;28;20234;-58
2022/12/11 15:37:54;;;;;;;30.23;18.10;;;;;;;;;;5038760;28;20196;-59
2022/12/11 15:40:21;;;;;;;29.25;17.02;;;;;;;;;;5038565;28;20197;-59
2022/12/11 15:42:49;;;;;;;26.67;16.73;;;;;;;;;;5038594;28;20204;-59
2022/12/11 15:45:17;;;;;;;26.45;17.48;;;;;;;;;;5038387;28;20220;-59
2022/12/11 15:47:44;;;;;;;30.90;19.27;;;;;;;;;;5038466;28;20501;-67
2022/12/11 15:50:14;;;;;;;26.30;17.58;;;;;;;;;;5041464;28;20270;-67
2022/12/11 15:52:41;;;;;;;29.13;17.85;;;;;;;;;;5042231;28;20198;-67
2022/12/11 15:55:07;;;;;;;31.38;19.55;;;;;;;;;;5041885;28;20197;-67
2022/12/11 15:57:34;;;;;;;27.75;18.70;;;;;;;;;;5041893;28;20261;-67
2022/12/11 16:00:02;;;;;;;27.83;18.02;;;;;;;;;;5041668;28;20189;-67
2022/12/11 16:02:28;;;;;;;29.52;18.33;;;;;;;;;;5041676;28;20221;-67
2022/12/11 16:04:54;;;;;;;29.75;18.38;;;;;;;;;;5041987;28;20392;-67
2022/12/11 16:07:22;;;;;;;30.05;19.38;;;;;;;;;;5041746;27;20204;-67
2022/12/11 16:09:48;;;;;;;30.80;19.05;;;;;;;;;;5041329;28;20225;-67
2022/12/11 16:12:14;;;;;;;31.30;19.20;;;;;;;;;;5042139;28;20521;-67
2022/12/11 16:14:41;;;;;;;30.80;18.48;;;;;;;;;;5031507;27;20640;-67
2022/12/11 16:17:09;;;;;;;31.48;19.05;;;;;;;;;;5029524;28;20419;-66
2022/12/11 16:19:36;;;;;;;27.08;17.70;;;;;;;;;;5035579;28;20214;-66
2022/12/11 16:22:03;;;;;;;33.78;19.27;;;;;;;;;;5036029;28;20397;-66
2022/12/11 16:24:29;;;;;;;33.63;20.38;;;;;;;;;;5036005;28;20280;-67
2022/12/11 16:26:56;;;;;;;31.90;20.67;;;;;;;;;;5035930;28;20229;-66
2022/12/11 16:29:22;;;;;;;35.28;20.77;;;;;;;;;;5035874;28;20423;-66
2022/12/11 16:31:48;;;;;;;33.75;20.67;;;;;;;;;;5036617;28;20230;-66
2022/12/11 16:34:16;;;;;;;32.15;20.00;;;;;;;;;;5036118;28;20210;-66
2022/12/11 16:36:42;;;;;;;33.03;20.55;;;;;;;;;;5036146;28;20209;-67
2022/12/11 16:39:10;;;;;;;30.45;20.27;;;;;;;;;;5036593;28;20209;-66
2022/12/11 16:41:37;;;;;;;37.47;22.92;;;;;;;;;;5036282;28;20206;-65
2022/12/11 16:44:03;;;;;;;36.45;22.67;;;;;;;;;;5035990;28;20206;-68
2022/12/11 16:46:30;;;;;;;42.85;24.60;;;;;;;;;;5035946;28;20220;-67
2022/12/11 16:48:56;;;;;;;40.60;23.63;;;;;;;;;;5035630;28;20409;-66
2022/12/11 16:51:24;;;;;;;49.40;28.23;;;;;;;;;;5035937;28;20324;-66
2022/12/11 16:53:50;;;;;;;42.67;25.90;;;;;;;;;;5035809;28;20210;-66
2022/12/11 16:56:17;;;;;;;48.63;27.60;;;;;;;;;;5035016;28;20210;-67
2022/12/11 16:58:43;;;;;;;39.67;24.40;;;;;;;;;;5035501;28;20210;-66
2022/12/11 17:01:10;;;;;;;41.53;23.52;;;;;;;;;;5035181;28;20270;-66
2022/12/11 17:03:37;;;;;;;37.33;22.83;;;;;;;;;;5035727;28;20209;-66
2022/12/11 17:06:05;;;;;;;35.33;21.85;;;;;;;;;;5035169;28;20216;-67
2022/12/11 17:08:33;;;;;;;33.83;21.10;;;;;;;;;;5035611;28;20210;-67
2022/12/11 17:10:59;;;;;;;37.88;22.38;;;;;;;;;;5035729;28;20222;-67
2022/12/11 17:13:25;;;;;;;36.72;21.92;;;;;;;;;;5035482;28;20450;-67
2022/12/11 17:15:54;;;;;;;35.45;21.27;;;;;;;;;;5035025;28;20208;-66
2022/12/11 17:18:20;;;;;;;36.05;22.40;;;;;;;;;;5035765;28;20210;-68
2022/12/11 17:20:47;;;;;;;35.08;21.45;;;;;;;;;;5035508;28;20218;-67
2022/12/11 17:23:13;;;;;;;37.72;21.10;;;;;;;;;;5035068;28;20252;-67
2022/12/11 17:25:41;;;;;;;34.28;21.00;;;;;;;;;;5035279;28;20277;-66
2022/12/11 17:28:07;;;;;;;32.35;19.88;;;;;;;;;;5034888;28;20301;-67
2022/12/11 17:30:34;;;;;;;35.80;20.60;;;;;;;;;;5035671;28;20276;-66
2022/12/11 17:33:01;;;;;;;37.22;21.27;;;;;;;;;;5035545;28;20210;-67
2022/12/11 17:35:28;;;;;;;32.53;19.05;;;;;;;;;;5035647;28;20270;-68
2022/12/11 17:37:54;;;;;;;34.05;20.30;;;;;;;;;;5035283;28;20209;-68
2022/12/11 17:40:21;;;;;;;35.42;20.98;;;;;;;;;;5035352;28;20244;-67
2022/12/11 17:42:50;;;;;;;30.67;20.00;;;;;;;;;;5035525;28;20272;-67
2022/12/11 17:45:16;;;;;;;32.70;19.92;;;;;;;;;;5034918;28;20206;-67
2022/12/11 17:47:43;;;;;;;33.15;19.25;;;;;;;;;;5035066;28;20201;-67
2022/12/11 17:50:09;;;;;;;31.65;19.55;;;;;;;;;;5035045;28;20665;-67
2022/12/11 17:52:38;;;;;;;30.92;18.95;;;;;;;;;;5034951;28;20248;-66
2022/12/11 17:55:05;;;;;;;33.10;19.73;;;;;;;;;;5034720;28;20440;-68
2022/12/11 17:57:31;;;;;;;30.58;19.67;;;;;;;;;;5034881;28;20585;-67
2022/12/11 17:59:59;;;;;;;35.00;19.38;;;;;;;;;;5035054;28;20216;-67
2022/12/11 18:02:25;;;;;;;33.63;19.27;;;;;;;;;;5035078;28;20206;-68
2022/12/11 18:04:53;;;;;;;32.38;19.65;;;;;;;;;;5034576;28;20224;-68
2022/12/11 18:07:24;;;;;;;34.90;20.95;;;;;;;;;;5034695;28;20266;-67
2022/12/11 18:09:50;;;;;;;32.20;19.85;;;;;;;;;;5034439;28;20279;-67
2022/12/11 18:12:17;;;;;;;30.13;19.02;;;;;;;;;;5033961;28;20572;-68
2022/12/11 18:14:50;;;;;;;31.10;19.85;;;;;;;;;;5034329;28;20209;-66
2022/12/11 18:17:19;;;;;;;31.25;19.10;;;;;;;;;;5034657;28;20210;-67
2022/12/11 18:19:46;;;;;;;32.38;18.90;;;;;;;;;;5034961;28;20218;-67
2022/12/11 18:22:12;;;;;;;34.88;19.75;;;;;;;;;;5034935;28;20233;-67
2022/12/11 18:24:39;;;;;;;32.90;19.52;;;;;;;;;;5034528;28;20245;-68
2022/12/11 18:27:09;;;;;;;31.13;19.38;;;;;;;;;;5034262;28;20229;-67
2022/12/11 18:29:35;;;;;;;34.35;20.48;;;;;;;;;;5034370;28;20267;-66
2022/12/11 18:32:01;;;;;;;32.58;19.50;;;;;;;;;;5034521;28;20268;-68
2022/12/11 18:34:29;;;;;;;36.15;19.73;;;;;;;;;;5034882;28;20404;-67
2022/12/11 18:36:55;;;;;;;33.67;20.25;;;;;;;;;;5034434;28;20224;-67
2022/12/11 18:39:22;;;;;;;34.53;20.55;;;;;;;;;;5035186;28;20276;-68
2022/12/11 18:41:48;;;;;;;36.72;20.08;;;;;;;;;;5035138;28;20228;-67
2022/12/11 18:44:15;;;;;;;30.77;19.38;;;;;;;;;;5034290;28;20222;-67
2022/12/11 18:46:42;;;;;;;33.80;20.65;;;;;;;;;;5033808;28;20285;-67
2022/12/11 18:49:08;;;;;;;43.65;24.98;;;;;;;;;;5034387;28;20533;-69
2022/12/11 18:51:36;;;;;;;49.67;25.70;;;;;;;;;;5034458;28;20245;-67
2022/12/11 18:54:03;;;;;;;50.28;28.55;;;;;;;;;;5034284;28;20202;-67
2022/12/11 18:56:29;;;;;;;49.42;26.77;;;;;;;;;;5033938;28;20553;-67
2022/12/11 18:58:56;;;;;;;47.58;27.13;;;;;;;;;;5033594;28;20565;-67
2022/12/11 19:01:23;;;;;;;45.83;26.42;;;;;;;;;;5034076;28;20305;-67
2022/12/11 19:03:50;;;;;;;39.97;24.92;;;;;;;;;;5034078;28;20230;-66
2022/12/11 19:06:27;;;;;;;47.17;25.77;;;;;;;;;;5033709;28;20210;-68
2022/12/11 19:08:55;;;;;;;43.60;25.05;;;;;;;;;;5033701;28;20261;-67
2022/12/11 19:11:23;;;;;;;44.47;24.95;;;;;;;;;;5033576;28;20430;-68
2022/12/11 19:13:50;;;;;;;41.97;24.52;;;;;;;;;;5030784;28;20221;-67
2022/12/11 19:16:17;;;;;;;37.13;23.80;;;;;;;;;;5032840;28;20210;-68
2022/12/11 19:18:44;;;;;;;36.17;21.98;;;;;;;;;;5033878;28;20271;-68
2022/12/11 19:21:11;;;;;;;37.45;22.52;;;;;;;;;;5033982;28;20259;-67
2022/12/11 19:23:39;;;;;;;38.58;21.60;;;;;;;;;;5035283;28;20426;-68
2022/12/11 19:26:09;;;;;;;35.72;20.73;;;;;;;;;;5036620;28;20395;-67
2022/12/11 19:28:36;;;;;;;37.80;21.95;;;;;;;;;;5034878;28;20665;-66
2022/12/11 19:31:02;;;;;;;35.90;21.38;;;;;;;;;;5036958;28;20428;-67
2022/12/11 19:33:29;;;;;;;33.40;21.15;;;;;;;;;;5036670;28;20241;-67
2022/12/11 19:36:02;;;;;;;36.30;21.20;;;;;;;;;;5036345;28;20229;-67
2022/12/11 19:38:28;;;;;;;32.65;19.95;;;;;;;;;;5035704;28;20313;-67
2022/12/11 19:40:57;;;;;;;32.60;19.13;;;;;;;;;;5036614;28;20241;-68
2022/12/11 19:43:26;;;;;;;34.33;20.15;;;;;;;;;;5036586;28;20237;-68
2022/12/11 19:45:52;;;;;;;32.35;19.38;;;;;;;;;;5036429;28;20216;-67
2022/12/11 19:48:19;;;;;;;34.70;20.30;;;;;;;;;;5036274;28;20209;-67
2022/12/11 19:50:45;;;;;;;33.17;20.38;;;;;;;;;;5036986;28;20546;-68
2022/12/11 19:53:11;;;;;;;32.67;18.70;;;;;;;;;;5036360;28;20270;-67
2022/12/11 19:55:38;;;;;;;31.55;19.70;;;;;;;;;;5036514;28;20392;-67
2022/12/11 19:58:04;;;;;;;33.90;20.20;;;;;;;;;;5036352;28;20210;-67
2022/12/11 20:00:32;;;;;;;31.60;20.25;;;;;;;;;;5036020;28;20205;-67
2022/12/11 20:02:58;;;;;;;36.22;21.05;;;;;;;;;;5036912;28;20259;-66
2022/12/11 20:05:25;;;;;;;31.65;19.20;;;;;;;;;;5036534;28;20281;-66
2022/12/11 20:07:51;;;;;;;31.67;19.50;;;;;;;;;;5037110;28;20281;-67
2022/12/11 20:10:18;;;;;;;33.58;19.13;;;;;;;;;;5036135;27;20426;-67
2022/12/11 20:12:44;;;;;;;36.35;20.48;;;;;;;;;;5027628;28;20271;-67
2022/12/11 20:15:11;;;;;;;31.92;19.83;;;;;;;;;;5035592;27;20467;-67
2022/12/11 20:17:42;;;;;;;32.33;19.73;;;;;;;;;;5036403;28;20277;-65
2022/12/11 20:20:12;;;;;;;37.75;20.20;;;;;;;;;;5035770;28;20406;-66
2022/12/11 20:22:40;;;;;;;35.22;20.75;;;;;;;;;;5036377;28;20489;-67
2022/12/11 20:25:07;;;;;;;34.05;20.50;;;;;;;;;;5036816;28;20206;-67
2022/12/11 20:27:33;;;;;;;37.20;21.55;;;;;;;;;;5036553;28;20293;-67
2022/12/11 20:30:00;;;;;;;36.83;21.40;;;;;;;;;;5036164;28;20231;-67
2022/12/11 20:32:27;;;;;;;40.92;22.45;;;;;;;;;;5035185;28;20226;-66
2022/12/11 20:34:56;;;;;;;40.40;24.13;;;;;;;;;;5035670;28;20210;-67
2022/12/11 20:37:24;;;;;;;41.70;23.83;;;;;;;;;;5036678;28;20296;-67
2022/12/11 20:39:51;;;;;;;37.95;23.17;;;;;;;;;;5036257;28;20210;-66
2022/12/11 20:42:17;;;;;;;42.65;25.42;;;;;;;;;;5035627;28;20209;-67
2022/12/11 20:44:45;;;;;;;39.63;23.77;;;;;;;;;;5017737;28;20211;-67
2022/12/11 20:47:12;;;;;;;41.92;24.45;;;;;;;;;;5016644;28;20218;-67
2022/12/11 20:49:40;;;;;;;39.38;24.20;;;;;;;;;;5015719;28;20218;-67
2022/12/11 20:52:07;;;;;;;40.85;24.13;;;;;;;;;;5023315;28;20481;-67
2022/12/11 20:54:34;;;;;;;42.78;24.73;;;;;;;;;;5036252;28;20387;-67
2022/12/11 20:57:00;;;;;;;43.78;25.38;;;;;;;;;;5036015;28;20202;-67
2022/12/11 20:59:27;;;;;;;40.40;24.27;;;;;;;;;;5035806;28;20433;-67
2022/12/11 21:01:54;;;;;;;47.70;25.77;;;;;;;;;;5034383;28;20210;-67
2022/12/11 21:04:21;;;;;;;44.75;25.52;;;;;;;;;;5035851;28;20209;-68
2022/12/11 21:06:53;;;;;;;43.85;25.83;;;;;;;;;;5035804;28;20408;-67
2022/12/11 21:09:23;;;;;;;40.70;23.13;;;;;;;;;;5035762;28;20281;-66
2022/12/11 21:11:49;;;;;;;42.78;24.77;;;;;;;;;;5035772;28;20217;-66
2022/12/11 21:14:16;;;;;;;43.72;26.02;;;;;;;;;;5035160;28;20460;-67
2022/12/11 21:16:43;;;;;;;45.60;26.50;;;;;;;;;;5035718;28;20539;-67
2022/12/11 21:19:10;;;;;;;42.22;25.50;;;;;;;;;;5035286;28;20788;-67
2022/12/11 21:21:40;;;;;;;44.72;25.95;;;;;;;;;;5035587;28;20217;-68
2022/12/11 21:24:07;;;;;;;42.05;25.00;;;;;;;;;;5034622;28;20214;-67
2022/12/11 21:26:35;;;;;;;44.10;26.02;;;;;;;;;;5035487;28;20344;-67
2022/12/11 21:29:01;;;;;;;41.38;23.75;;;;;;;;;;5035182;28;20256;-67
2022/12/11 21:31:29;;;;;;;36.47;23.13;;;;;;;;;;5035497;28;20210;-67
2022/12/11 21:33:59;;;;;;;39.65;22.55;;;;;;;;;;5034513;28;20321;-68
2022/12/11 21:36:29;;;;;;;37.05;22.15;;;;;;;;;;5035279;28;20201;-67
2022/12/11 21:38:55;;;;;;;37.58;23.63;;;;;;;;;;5035039;28;20222;-67
2022/12/11 21:41:23;;;;;;;36.90;23.27;;;;;;;;;;5035770;28;20241;-67
2022/12/11 21:43:52;;;;;;;39.17;24.05;;;;;;;;;;5034428;28;20245;-69
2022/12/11 21:46:20;;;;;;;37.88;23.45;;;;;;;;;;5034567;28;20247;-67
2022/12/11 21:48:47;;;;;;;39.60;23.60;;;;;;;;;;5035069;28;20234;-67
2022/12/11 21:51:17;;;;;;;37.47;23.08;;;;;;;;;;5035114;28;20210;-67
2022/12/11 21:53:44;;;;;;;39.83;23.95;;;;;;;;;;5034718;28;20506;-67
2022/12/11 21:56:12;;;;;;;39.03;24.85;;;;;;;;;;5034198;28;20273;-69
2022/12/11 21:58:42;;;;;;;37.50;23.30;;;;;;;;;;5034778;28;20213;-67
2022/12/11 22:01:13;;;;;;;39.13;23.25;;;;;;;;;;5035165;28;20468;-67
2022/12/11 22:03:40;;;;;;;39.05;23.98;;;;;;;;;;5034436;28;20216;-67
2022/12/11 22:06:06;;;;;;;38.38;23.45;;;;;;;;;;5034160;28;20251;-68
2022/12/11 22:08:35;;;;;;;39.83;23.55;;;;;;;;;;5034589;28;20210;-66
2022/12/11 22:11:02;;;;;;;35.88;23.05;;;;;;;;;;5035163;28;20241;-67
2022/12/11 22:13:29;;;;;;;34.45;22.27;;;;;;;;;;5034472;28;20253;-68
2022/12/11 22:15:55;;;;;;;36.30;22.25;;;;;;;;;;5034206;28;20549;-68
2022/12/11 22:18:25;;;;;;;36.10;22.70;;;;;;;;;;5035080;28;20480;-68
2022/12/11 22:20:52;;;;;;;53.45;27.35;;;;;;;;;;5035447;28;20224;-67
2022/12/11 22:23:20;;;;;;;53.53;28.98;;;;;;;;;;5035326;28;20229;-68
2022/12/11 22:25:47;;;;;;;54.25;29.30;;;;;;;;;;5034044;28;20501;-68
2022/12/11 22:28:13;;;;;;;47.22;27.40;;;;;;;;;;5034407;27;20222;-67
2022/12/11 22:30:40;;;;;;;52.03;28.77;;;;;;;;;;5034070;28;20217;-68
2022/12/11 22:33:08;;;;;;;50.88;30.30;;;;;;;;;;5033973;28;20221;-68
2022/12/11 22:35:36;;;;;;;44.25;27.13;;;;;;;;;;5034541;28;20216;-67
2022/12/11 22:38:02;;;;;;;46.85;26.73;;;;;;;;;;5033377;28;20214;-67
2022/12/11 22:40:29;;;;;;;45.35;27.05;;;;;;;;;;5034430;28;20210;-67
2022/12/11 22:42:56;;;;;;;45.17;25.90;;;;;;;;;;5034110;28;20206;-66
2022/12/11 22:45:22;;;;;;;43.78;25.70;;;;;;;;;;5034320;28;20210;-65
2022/12/11 22:47:48;;;;;;;40.63;24.80;;;;;;;;;;5032753;28;20216;-65
2022/12/11 22:50:15;;;;;;;40.47;24.58;;;;;;;;;;5033448;28;20490;-65
2022/12/11 22:52:44;;;;;;;41.90;24.48;;;;;;;;;;5033170;28;20233;-65
2022/12/11 22:55:10;;;;;;;42.50;24.70;;;;;;;;;;5033874;28;20218;-65
2022/12/11 22:57:37;;;;;;;42.55;24.90;;;;;;;;;;5032383;28;20378;-65
2022/12/11 23:00:05;;;;;;;40.70;23.08;;;;;;;;;;5033608;28;20234;-65
2022/12/11 23:02:31;;;;;;;39.58;24.00;;;;;;;;;;5033377;28;20210;-65
2022/12/11 23:04:57;;;;;;;39.92;24.33;;;;;;;;;;5033437;28;20210;-67
2022/12/11 23:07:24;;;;;;;40.58;23.52;;;;;;;;;;5033603;28;20209;-65
2022/12/11 23:09:51;;;;;;;37.72;23.80;;;;;;;;;;5033505;28;20461;-65
2022/12/11 23:12:18;;;;;;;38.20;23.05;;;;;;;;;;5033375;28;20210;-65
2022/12/11 23:14:44;;;;;;;36.88;22.63;;;;;;;;;;5033169;28;20516;-65
2022/12/11 23:17:11;;;;;;;38.17;23.33;;;;;;;;;;5033317;28;20201;-65
2022/12/11 23:19:37;;;;;;;37.17;22.67;;;;;;;;;;5031981;28;20205;-66
2022/12/11 23:22:03;;;;;;;37.50;21.83;;;;;;;;;;5039154;28;20230;-66
2022/12/11 23:24:30;;;;;;;36.40;22.52;;;;;;;;;;5039117;28;20392;-66
2022/12/11 23:26:57;;;;;;;35.25;22.48;;;;;;;;;;5038794;28;20225;-66
2022/12/11 23:29:24;;;;;;;39.10;22.67;;;;;;;;;;5038490;28;20225;-65
2022/12/11 23:31:50;;;;;;;41.58;23.35;;;;;;;;;;5038637;28;20198;-66
2022/12/11 23:34:16;;;;;;;39.10;23.65;;;;;;;;;;5031658;28;20222;-65
2022/12/11 23:36:43;;;;;;;41.22;23.85;;;;;;;;;;5018496;28;20206;-65
2022/12/11 23:39:09;;;;;;;40.78;23.40;;;;;;;;;;5028571;28;20517;-65
2022/12/11 23:41:36;;;;;;;37.83;24.13;;;;;;;;;;5035966;28;20219;-66
2022/12/11 23:44:04;;;;;;;34.60;22.08;;;;;;;;;;5037582;28;20193;-66
2022/12/11 23:46:30;;;;;;;40.70;23.95;;;;;;;;;;5038320;28;20201;-66
2022/12/11 23:48:56;;;;;;;39.00;21.77;;;;;;;;;;5021090;28;20530;-65
2022/12/11 23:51:24;;;;;;;39.63;23.67;;;;;;;;;;5035641;28;20206;-65
2022/12/11 23:53:50;;;;;;;40.95;23.55;;;;;;;;;;5037313;28;20533;-65
2022/12/11 23:56:18;;;;;;;36.00;23.45;;;;;;;;;;5038517;28;20204;-65
2022/12/11 23:58:44;;;;;;;39.83;22.83;;;;;;;;;;5038242;28;20206;-65
